sensor_id;sensor_type;location;lat;lon;timestamp;P1;durP1;ratioP1;P2;durP2;ratioP2
49103;SDS011;34915;52.926;11.116;2023-06-22T00:00:52;5.10;;;4.57;;
49103;SDS011;34915;52.926;11.116;2023-06-22T00:03:18;5.10;;;4.57;;
49103;SDS011;34915;52.926;11.116;2023-06-22T00:05:45;4.93;;;4.47;;
49103;SDS011;34915;52.926;11.116;2023-06-22T00:08:12;5.50;;;5.00;;
49103;SDS011;34915;52.926;11.116;2023-06-22T00:10:38;5.33;;;4.90;;
49103;SDS011;34915;52.926;11.116;2023-06-22T00:13:05;5.20;;;4.73;;
49103;SDS011;34915;52.926;11.116;2023-06-22T00:15:31;5.67;;;5.17;;
49103;SDS011;34915;52.926;11.116;2023-06-22T00:17:57;5.57;;;5.07;;
49103;SDS011;34915;52.926;11.116;2023-06-22T00:20:24;4.97;;;4.57;;
49103;SDS011;34915;52.926;11.116;2023-06-22T00:22:59;5.43;;;4.93;;
49103;SDS011;34915;52.926;11.116;2023-06-22T00:25:25;6.13;;;5.27;;
49103;SDS011;34915;52.926;11.116;2023-06-22T00:27:51;5.63;;;5.13;;
49103;SDS011;34915;52.926;11.116;2023-06-22T00:30:17;5.30;;;4.83;;
49103;SDS011;34915;52.926;11.116;2023-06-22T00:32:43;5.33;;;4.83;;
49103;SDS011;34915;52.926;11.116;2023-06-22T00:35:09;5.00;;;4.57;;
49103;SDS011;34915;52.926;11.116;2023-06-22T00:37:36;6.50;;;4.90;;
49103;SDS011;34915;52.926;11.116;2023-06-22T00:40:02;4.63;;;4.23;;
49103;SDS011;34915;52.926;11.116;2023-06-22T00:42:29;5.40;;;4.90;;
49103;SDS011;34915;52.926;11.116;2023-06-22T00:44:55;5.50;;;5.00;;
49103;SDS011;34915;52.926;11.116;2023-06-22T00:47:23;5.83;;;5.07;;
49103;SDS011;34915;52.926;11.116;2023-06-22T00:49:49;5.27;;;4.77;;
49103;SDS011;34915;52.926;11.116;2023-06-22T00:52:19;5.03;;;4.63;;
49103;SDS011;34915;52.926;11.116;2023-06-22T00:54:47;5.03;;;4.53;;
49103;SDS011;34915;52.926;11.116;2023-06-22T00:57:14;4.97;;;4.50;;
49103;SDS011;34915;52.926;11.116;2023-06-22T00:59:46;5.23;;;4.73;;
49103;SDS011;34915;52.926;11.116;2023-06-22T01:02:13;4.93;;;4.53;;
49103;SDS011;34915;52.926;11.116;2023-06-22T01:04:39;5.27;;;4.77;;
49103;SDS011;34915;52.926;11.116;2023-06-22T01:09:46;5.20;;;4.70;;
49103;SDS011;34915;52.926;11.116;2023-06-22T01:12:19;6.37;;;4.57;;
49103;SDS011;34915;52.926;11.116;2023-06-22T01:14:57;5.30;;;4.90;;
49103;SDS011;34915;52.926;11.116;2023-06-22T01:17:36;5.27;;;4.77;;
49103;SDS011;34915;52.926;11.116;2023-06-22T01:20:06;5.03;;;4.53;;
49103;SDS011;34915;52.926;11.116;2023-06-22T01:22:46;5.17;;;4.67;;
49103;SDS011;34915;52.926;11.116;2023-06-22T01:25:47;5.47;;;4.93;;
49103;SDS011;34915;52.926;11.116;2023-06-22T01:28:23;5.40;;;4.90;;
49103;SDS011;34915;52.926;11.116;2023-06-22T01:30:58;5.43;;;5.03;;
49103;SDS011;34915;52.926;11.116;2023-06-22T01:33:34;4.97;;;4.53;;
49103;SDS011;34915;52.926;11.116;2023-06-22T01:36:03;5.17;;;4.77;;
49103;SDS011;34915;52.926;11.116;2023-06-22T01:38:30;5.53;;;5.03;;
49103;SDS011;34915;52.926;11.116;2023-06-22T01:40:57;5.77;;;5.23;;
49103;SDS011;34915;52.926;11.116;2023-06-22T01:43:25;6.43;;;5.83;;
49103;SDS011;34915;52.926;11.116;2023-06-22T01:45:51;5.17;;;4.67;;
49103;SDS011;34915;52.926;11.116;2023-06-22T01:48:19;6.10;;;4.90;;
49103;SDS011;34915;52.926;11.116;2023-06-22T01:50:44;5.50;;;5.00;;
49103;SDS011;34915;52.926;11.116;2023-06-22T01:53:10;5.47;;;4.83;;
49103;SDS011;34915;52.926;11.116;2023-06-22T01:55:36;6.37;;;5.77;;
49103;SDS011;34915;52.926;11.116;2023-06-22T01:58:01;5.07;;;4.57;;
49103;SDS011;34915;52.926;11.116;2023-06-22T02:00:27;5.43;;;4.93;;
49103;SDS011;34915;52.926;11.116;2023-06-22T02:02:59;5.00;;;4.57;;
49103;SDS011;34915;52.926;11.116;2023-06-22T02:05:26;5.43;;;4.90;;
49103;SDS011;34915;52.926;11.116;2023-06-22T02:08:14;5.17;;;4.70;;
49103;SDS011;34915;52.926;11.116;2023-06-22T02:10:46;5.80;;;5.03;;
49103;SDS011;34915;52.926;11.116;2023-06-22T02:13:13;13.90;;;6.10;;
49103;SDS011;34915;52.926;11.116;2023-06-22T02:15:41;5.87;;;5.37;;
49103;SDS011;34915;52.926;11.116;2023-06-22T02:18:07;32.77;;;7.27;;
49103;SDS011;34915;52.926;11.116;2023-06-22T02:20:33;5.73;;;5.13;;
49103;SDS011;34915;52.926;11.116;2023-06-22T02:23:02;5.83;;;5.20;;
49103;SDS011;34915;52.926;11.116;2023-06-22T02:25:31;6.10;;;5.10;;
49103;SDS011;34915;52.926;11.116;2023-06-22T02:27:57;6.17;;;5.57;;
49103;SDS011;34915;52.926;11.116;2023-06-22T02:30:22;6.27;;;5.27;;
49103;SDS011;34915;52.926;11.116;2023-06-22T02:32:48;6.57;;;6.00;;
49103;SDS011;34915;52.926;11.116;2023-06-22T02:35:14;6.63;;;5.20;;
49103;SDS011;34915;52.926;11.116;2023-06-22T02:37:39;8.20;;;5.80;;
49103;SDS011;34915;52.926;11.116;2023-06-22T02:40:10;5.37;;;4.93;;
49103;SDS011;34915;52.926;11.116;2023-06-22T02:42:36;6.70;;;6.07;;
49103;SDS011;34915;52.926;11.116;2023-06-22T02:45:02;6.27;;;5.67;;
49103;SDS011;34915;52.926;11.116;2023-06-22T02:47:28;6.80;;;5.70;;
49103;SDS011;34915;52.926;11.116;2023-06-22T02:49:54;6.37;;;5.50;;
49103;SDS011;34915;52.926;11.116;2023-06-22T02:52:20;6.80;;;6.20;;
49103;SDS011;34915;52.926;11.116;2023-06-22T02:54:46;8.07;;;6.43;;
49103;SDS011;34915;52.926;11.116;2023-06-22T02:57:11;6.63;;;6.03;;
49103;SDS011;34915;52.926;11.116;2023-06-22T02:59:41;8.07;;;6.40;;
49103;SDS011;34915;52.926;11.116;2023-06-22T03:02:08;6.67;;;6.07;;
49103;SDS011;34915;52.926;11.116;2023-06-22T03:04:34;6.27;;;5.67;;
49103;SDS011;34915;52.926;11.116;2023-06-22T03:07:01;6.43;;;5.77;;
49103;SDS011;34915;52.926;11.116;2023-06-22T03:09:27;6.63;;;5.90;;
49103;SDS011;34915;52.926;11.116;2023-06-22T03:11:54;6.80;;;6.03;;
49103;SDS011;34915;52.926;11.116;2023-06-22T03:14:20;6.47;;;5.87;;
49103;SDS011;34915;52.926;11.116;2023-06-22T03:16:46;6.07;;;5.40;;
49103;SDS011;34915;52.926;11.116;2023-06-22T03:19:12;5.83;;;5.33;;
49103;SDS011;34915;52.926;11.116;2023-06-22T03:21:38;6.17;;;5.67;;
49103;SDS011;34915;52.926;11.116;2023-06-22T03:24:04;6.97;;;5.77;;
49103;SDS011;34915;52.926;11.116;2023-06-22T03:26:30;8.03;;;6.13;;
49103;SDS011;34915;52.926;11.116;2023-06-22T03:28:56;6.20;;;5.70;;
49103;SDS011;34915;52.926;11.116;2023-06-22T03:31:22;6.70;;;6.10;;
49103;SDS011;34915;52.926;11.116;2023-06-22T03:33:48;7.00;;;6.40;;
49103;SDS011;34915;52.926;11.116;2023-06-22T03:36:15;10.50;;;6.67;;
49103;SDS011;34915;52.926;11.116;2023-06-22T03:38:45;6.43;;;5.83;;
49103;SDS011;34915;52.926;11.116;2023-06-22T03:41:11;7.07;;;6.37;;
49103;SDS011;34915;52.926;11.116;2023-06-22T03:43:37;7.50;;;6.80;;
49103;SDS011;34915;52.926;11.116;2023-06-22T03:46:02;7.07;;;6.20;;
49103;SDS011;34915;52.926;11.116;2023-06-22T03:48:28;8.23;;;6.53;;
49103;SDS011;34915;52.926;11.116;2023-06-22T03:50:53;8.53;;;7.00;;
49103;SDS011;34915;52.926;11.116;2023-06-22T03:53:20;8.13;;;7.27;;
49103;SDS011;34915;52.926;11.116;2023-06-22T03:55:49;7.40;;;6.63;;
49103;SDS011;34915;52.926;11.116;2023-06-22T03:58:16;7.40;;;6.50;;
49103;SDS011;34915;52.926;11.116;2023-06-22T04:00:45;7.90;;;5.87;;
49103;SDS011;34915;52.926;11.116;2023-06-22T04:03:13;8.03;;;7.33;;
49103;SDS011;34915;52.926;11.116;2023-06-22T04:05:40;11.67;;;7.50;;
49103;SDS011;34915;52.926;11.116;2023-06-22T04:08:06;8.57;;;7.77;;
49103;SDS011;34915;52.926;11.116;2023-06-22T04:10:32;7.60;;;6.90;;
49103;SDS011;34915;52.926;11.116;2023-06-22T04:12:57;7.37;;;6.63;;
49103;SDS011;34915;52.926;11.116;2023-06-22T04:15:25;7.60;;;6.90;;
49103;SDS011;34915;52.926;11.116;2023-06-22T04:17:51;7.37;;;6.40;;
49103;SDS011;34915;52.926;11.116;2023-06-22T04:20:16;7.93;;;7.20;;
49103;SDS011;34915;52.926;11.116;2023-06-22T04:22:42;7.77;;;7.07;;
49103;SDS011;34915;52.926;11.116;2023-06-22T04:25:07;7.10;;;6.27;;
49103;SDS011;34915;52.926;11.116;2023-06-22T04:27:33;6.63;;;6.03;;
49103;SDS011;34915;52.926;11.116;2023-06-22T04:30:07;8.93;;;7.03;;
49103;SDS011;34915;52.926;11.116;2023-06-22T04:32:33;8.07;;;7.27;;
49103;SDS011;34915;52.926;11.116;2023-06-22T04:35:03;10.80;;;7.23;;
49103;SDS011;34915;52.926;11.116;2023-06-22T04:37:32;9.33;;;7.70;;
49103;SDS011;34915;52.926;11.116;2023-06-22T04:39:58;9.33;;;7.80;;
49103;SDS011;34915;52.926;11.116;2023-06-22T04:42:27;8.20;;;7.40;;
49103;SDS011;34915;52.926;11.116;2023-06-22T04:44:55;8.17;;;7.37;;
49103;SDS011;34915;52.926;11.116;2023-06-22T04:47:20;9.13;;;8.23;;
49103;SDS011;34915;52.926;11.116;2023-06-22T04:49:46;9.20;;;8.10;;
49103;SDS011;34915;52.926;11.116;2023-06-22T04:52:12;7.87;;;7.07;;
49103;SDS011;34915;52.926;11.116;2023-06-22T04:54:39;8.47;;;7.57;;
49103;SDS011;34915;52.926;11.116;2023-06-22T04:57:12;8.10;;;7.37;;
49103;SDS011;34915;52.926;11.116;2023-06-22T04:59:38;9.83;;;7.77;;
49103;SDS011;34915;52.926;11.116;2023-06-22T05:02:05;9.60;;;8.00;;
49103;SDS011;34915;52.926;11.116;2023-06-22T05:04:31;8.27;;;6.93;;
49103;SDS011;34915;52.926;11.116;2023-06-22T05:06:57;9.00;;;7.30;;
49103;SDS011;34915;52.926;11.116;2023-06-22T05:09:25;8.47;;;7.63;;
49103;SDS011;34915;52.926;11.116;2023-06-22T05:11:52;7.60;;;6.97;;
49103;SDS011;34915;52.926;11.116;2023-06-22T05:14:18;10.77;;;6.80;;
49103;SDS011;34915;52.926;11.116;2023-06-22T05:16:44;7.83;;;6.90;;
49103;SDS011;34915;52.926;11.116;2023-06-22T05:19:11;6.80;;;6.10;;
49103;SDS011;34915;52.926;11.116;2023-06-22T05:21:37;7.40;;;6.70;;
49103;SDS011;34915;52.926;11.116;2023-06-22T05:24:03;8.97;;;7.40;;
49103;SDS011;34915;52.926;11.116;2023-06-22T05:26:30;8.10;;;6.33;;
49103;SDS011;34915;52.926;11.116;2023-06-22T05:28:56;6.63;;;6.03;;
49103;SDS011;34915;52.926;11.116;2023-06-22T05:31:22;7.03;;;6.10;;
49103;SDS011;34915;52.926;11.116;2023-06-22T05:33:50;6.40;;;5.80;;
49103;SDS011;34915;52.926;11.116;2023-06-22T05:36:17;7.07;;;6.37;;
49103;SDS011;34915;52.926;11.116;2023-06-22T05:38:47;7.10;;;6.10;;
49103;SDS011;34915;52.926;11.116;2023-06-22T05:41:13;6.30;;;5.70;;
49103;SDS011;34915;52.926;11.116;2023-06-22T05:43:39;7.20;;;5.60;;
49103;SDS011;34915;52.926;11.116;2023-06-22T05:46:05;6.60;;;5.93;;
49103;SDS011;34915;52.926;11.116;2023-06-22T05:48:31;6.17;;;5.57;;
49103;SDS011;34915;52.926;11.116;2023-06-22T05:50:56;6.73;;;6.03;;
49103;SDS011;34915;52.926;11.116;2023-06-22T05:53:23;7.40;;;5.83;;
49103;SDS011;34915;52.926;11.116;2023-06-22T05:55:48;5.57;;;4.87;;
49103;SDS011;34915;52.926;11.116;2023-06-22T05:58:14;5.40;;;4.87;;
49103;SDS011;34915;52.926;11.116;2023-06-22T06:00:40;5.97;;;5.37;;
49103;SDS011;34915;52.926;11.116;2023-06-22T06:03:10;7.07;;;5.50;;
49103;SDS011;34915;52.926;11.116;2023-06-22T06:05:36;7.13;;;5.87;;
49103;SDS011;34915;52.926;11.116;2023-06-22T06:08:03;5.30;;;4.80;;
49103;SDS011;34915;52.926;11.116;2023-06-22T06:10:33;6.97;;;5.20;;
49103;SDS011;34915;52.926;11.116;2023-06-22T06:12:59;6.07;;;4.90;;
49103;SDS011;34915;52.926;11.116;2023-06-22T06:15:27;5.20;;;4.40;;
49103;SDS011;34915;52.926;11.116;2023-06-22T06:17:53;5.10;;;4.33;;
49103;SDS011;34915;52.926;11.116;2023-06-22T06:20:22;5.00;;;4.47;;
49103;SDS011;34915;52.926;11.116;2023-06-22T06:22:49;5.07;;;3.73;;
49103;SDS011;34915;52.926;11.116;2023-06-22T06:25:15;3.80;;;3.50;;
49103;SDS011;34915;52.926;11.116;2023-06-22T06:27:43;6.67;;;4.40;;
49103;SDS011;34915;52.926;11.116;2023-06-22T06:30:12;4.30;;;3.90;;
49103;SDS011;34915;52.926;11.116;2023-06-22T06:32:40;4.13;;;3.77;;
49103;SDS011;34915;52.926;11.116;2023-06-22T06:35:09;4.77;;;3.33;;
49103;SDS011;34915;52.926;11.116;2023-06-22T06:37:36;3.83;;;3.43;;
49103;SDS011;34915;52.926;11.116;2023-06-22T06:40:06;3.80;;;3.47;;
49103;SDS011;34915;52.926;11.116;2023-06-22T06:42:39;3.80;;;3.40;;
49103;SDS011;34915;52.926;11.116;2023-06-22T06:45:14;3.77;;;3.47;;
49103;SDS011;34915;52.926;11.116;2023-06-22T06:47:41;4.57;;;3.53;;
49103;SDS011;34915;52.926;11.116;2023-06-22T06:50:07;4.90;;;3.07;;
49103;SDS011;34915;52.926;11.116;2023-06-22T06:52:34;4.00;;;3.60;;
49103;SDS011;34915;52.926;11.116;2023-06-22T06:55:00;5.73;;;3.43;;
49103;SDS011;34915;52.926;11.116;2023-06-22T06:57:25;4.13;;;3.70;;
49103;SDS011;34915;52.926;11.116;2023-06-22T06:59:54;4.17;;;3.77;;
49103;SDS011;34915;52.926;11.116;2023-06-22T07:02:21;5.43;;;3.90;;
49103;SDS011;34915;52.926;11.116;2023-06-22T07:04:47;4.90;;;3.73;;
49103;SDS011;34915;52.926;11.116;2023-06-22T07:07:13;4.90;;;3.80;;
49103;SDS011;34915;52.926;11.116;2023-06-22T07:09:39;4.00;;;3.57;;
49103;SDS011;34915;52.926;11.116;2023-06-22T07:12:07;3.47;;;3.17;;
49103;SDS011;34915;52.926;11.116;2023-06-22T07:14:33;3.60;;;3.30;;
49103;SDS011;34915;52.926;11.116;2023-06-22T07:16:58;5.50;;;3.57;;
49103;SDS011;34915;52.926;11.116;2023-06-22T07:19:24;4.67;;;4.07;;
49103;SDS011;34915;52.926;11.116;2023-06-22T07:21:51;4.17;;;3.23;;
49103;SDS011;34915;52.926;11.116;2023-06-22T07:24:16;4.00;;;3.43;;
49103;SDS011;34915;52.926;11.116;2023-06-22T07:26:42;3.00;;;2.73;;
49103;SDS011;34915;52.926;11.116;2023-06-22T07:29:10;2.97;;;2.77;;
49103;SDS011;34915;52.926;11.116;2023-06-22T07:31:37;3.23;;;2.93;;
49103;SDS011;34915;52.926;11.116;2023-06-22T07:34:02;3.13;;;2.83;;
49103;SDS011;34915;52.926;11.116;2023-06-22T07:36:29;3.30;;;3.00;;
49103;SDS011;34915;52.926;11.116;2023-06-22T07:38:55;4.10;;;2.77;;
49103;SDS011;34915;52.926;11.116;2023-06-22T07:41:20;3.27;;;2.90;;
49103;SDS011;34915;52.926;11.116;2023-06-22T07:43:46;2.67;;;2.47;;
49103;SDS011;34915;52.926;11.116;2023-06-22T07:46:12;3.60;;;2.87;;
49103;SDS011;34915;52.926;11.116;2023-06-22T07:48:39;3.70;;;2.60;;
49103;SDS011;34915;52.926;11.116;2023-06-22T07:51:06;2.63;;;2.43;;
49103;SDS011;34915;52.926;11.116;2023-06-22T07:53:35;2.73;;;2.20;;
49103;SDS011;34915;52.926;11.116;2023-06-22T07:56:02;2.77;;;2.40;;
49103;SDS011;34915;52.926;11.116;2023-06-22T07:58:32;2.27;;;2.03;;
49103;SDS011;34915;52.926;11.116;2023-06-22T08:00:57;2.90;;;1.97;;
49103;SDS011;34915;52.926;11.116;2023-06-22T08:03:23;2.40;;;2.20;;
49103;SDS011;34915;52.926;11.116;2023-06-22T08:05:51;2.40;;;2.00;;
49103;SDS011;34915;52.926;11.116;2023-06-22T08:08:16;2.40;;;1.90;;
49103;SDS011;34915;52.926;11.116;2023-06-22T08:10:42;2.37;;;1.83;;
49103;SDS011;34915;52.926;11.116;2023-06-22T08:13:08;2.27;;;2.00;;
49103;SDS011;34915;52.926;11.116;2023-06-22T08:15:33;2.47;;;2.27;;
49103;SDS011;34915;52.926;11.116;2023-06-22T08:17:59;2.50;;;2.17;;
49103;SDS011;34915;52.926;11.116;2023-06-22T08:20:26;2.37;;;2.03;;
49103;SDS011;34915;52.926;11.116;2023-06-22T08:22:53;3.43;;;1.97;;
49103;SDS011;34915;52.926;11.116;2023-06-22T08:25:19;2.67;;;2.30;;
49103;SDS011;34915;52.926;11.116;2023-06-22T08:27:46;4.43;;;1.83;;
49103;SDS011;34915;52.926;11.116;2023-06-22T08:30:13;2.27;;;1.93;;
49103;SDS011;34915;52.926;11.116;2023-06-22T08:32:42;3.43;;;1.80;;
49103;SDS011;34915;52.926;11.116;2023-06-22T08:35:08;2.23;;;1.97;;
49103;SDS011;34915;52.926;11.116;2023-06-22T08:37:34;2.13;;;2.03;;
49103;SDS011;34915;52.926;11.116;2023-06-22T08:40:01;2.63;;;2.17;;
49103;SDS011;34915;52.926;11.116;2023-06-22T08:42:31;2.40;;;2.20;;
49103;SDS011;34915;52.926;11.116;2023-06-22T08:44:56;4.00;;;2.57;;
49103;SDS011;34915;52.926;11.116;2023-06-22T08:47:22;1.90;;;1.57;;
49103;SDS011;34915;52.926;11.116;2023-06-22T08:49:48;2.17;;;1.97;;
49103;SDS011;34915;52.926;11.116;2023-06-22T08:52:14;4.07;;;2.30;;
49103;SDS011;34915;52.926;11.116;2023-06-22T08:54:40;2.10;;;1.87;;
49103;SDS011;34915;52.926;11.116;2023-06-22T08:57:05;2.40;;;1.90;;
49103;SDS011;34915;52.926;11.116;2023-06-22T08:59:31;2.50;;;2.30;;
49103;SDS011;34915;52.926;11.116;2023-06-22T09:01:57;3.80;;;2.37;;
49103;SDS011;34915;52.926;11.116;2023-06-22T09:04:23;2.93;;;2.20;;
49103;SDS011;34915;52.926;11.116;2023-06-22T09:06:49;2.43;;;2.20;;
49103;SDS011;34915;52.926;11.116;2023-06-22T09:09:17;3.63;;;2.37;;
49103;SDS011;34915;52.926;11.116;2023-06-22T09:11:43;4.70;;;2.40;;
49103;SDS011;34915;52.926;11.116;2023-06-22T09:14:10;3.37;;;1.90;;
49103;SDS011;34915;52.926;11.116;2023-06-22T09:16:37;2.30;;;2.13;;
49103;SDS011;34915;52.926;11.116;2023-06-22T09:19:02;3.77;;;2.53;;
49103;SDS011;34915;52.926;11.116;2023-06-22T09:21:28;3.10;;;2.20;;
49103;SDS011;34915;52.926;11.116;2023-06-22T09:23:54;2.30;;;2.03;;
49103;SDS011;34915;52.926;11.116;2023-06-22T09:26:20;4.00;;;2.40;;
49103;SDS011;34915;52.926;11.116;2023-06-22T09:28:47;2.70;;;2.47;;
49103;SDS011;34915;52.926;11.116;2023-06-22T09:31:12;2.50;;;2.30;;
49103;SDS011;34915;52.926;11.116;2023-06-22T09:33:39;2.80;;;2.27;;
49103;SDS011;34915;52.926;11.116;2023-06-22T09:36:05;2.63;;;2.27;;
49103;SDS011;34915;52.926;11.116;2023-06-22T09:38:43;2.53;;;2.27;;
49103;SDS011;34915;52.926;11.116;2023-06-22T09:41:09;5.53;;;2.30;;
49103;SDS011;34915;52.926;11.116;2023-06-22T09:43:34;2.87;;;2.43;;
49103;SDS011;34915;52.926;11.116;2023-06-22T09:46:01;2.93;;;2.73;;
49103;SDS011;34915;52.926;11.116;2023-06-22T09:48:27;3.00;;;2.70;;
49103;SDS011;34915;52.926;11.116;2023-06-22T09:50:54;3.63;;;2.57;;
49103;SDS011;34915;52.926;11.116;2023-06-22T09:53:20;3.33;;;2.83;;
49103;SDS011;34915;52.926;11.116;2023-06-22T09:55:48;3.67;;;3.10;;
49103;SDS011;34915;52.926;11.116;2023-06-22T09:58:13;3.20;;;2.90;;
49103;SDS011;34915;52.926;11.116;2023-06-22T10:00:39;3.43;;;3.10;;
49103;SDS011;34915;52.926;11.116;2023-06-22T10:03:06;3.43;;;3.10;;
49103;SDS011;34915;52.926;11.116;2023-06-22T10:05:32;7.77;;;3.23;;
49103;SDS011;34915;52.926;11.116;2023-06-22T10:07:58;3.17;;;2.97;;
49103;SDS011;34915;52.926;11.116;2023-06-22T10:10:23;3.43;;;3.10;;
49103;SDS011;34915;52.926;11.116;2023-06-22T10:12:56;3.20;;;2.90;;
49103;SDS011;34915;52.926;11.116;2023-06-22T10:15:23;3.07;;;2.77;;
49103;SDS011;34915;52.926;11.116;2023-06-22T10:17:48;5.10;;;2.80;;
49103;SDS011;34915;52.926;11.116;2023-06-22T10:20:14;3.03;;;2.80;;
49103;SDS011;34915;52.926;11.116;2023-06-22T10:22:41;5.77;;;2.80;;
49103;SDS011;34915;52.926;11.116;2023-06-22T10:25:09;3.03;;;2.73;;
49103;SDS011;34915;52.926;11.116;2023-06-22T10:27:35;3.43;;;3.13;;
49103;SDS011;34915;52.926;11.116;2023-06-22T10:30:01;4.30;;;3.57;;
49103;SDS011;34915;52.926;11.116;2023-06-22T10:32:27;3.67;;;3.10;;
49103;SDS011;34915;52.926;11.116;2023-06-22T10:34:55;3.83;;;3.50;;
49103;SDS011;34915;52.926;11.116;2023-06-22T10:37:21;3.67;;;3.37;;
49103;SDS011;34915;52.926;11.116;2023-06-22T10:39:47;3.57;;;3.27;;
49103;SDS011;34915;52.926;11.116;2023-06-22T10:42:13;3.47;;;3.17;;
49103;SDS011;34915;52.926;11.116;2023-06-22T10:44:39;3.77;;;3.47;;
49103;SDS011;34915;52.926;11.116;2023-06-22T10:47:06;5.70;;;3.10;;
49103;SDS011;34915;52.926;11.116;2023-06-22T10:49:32;3.60;;;3.30;;
49103;SDS011;34915;52.926;11.116;2023-06-22T10:51:57;3.50;;;3.20;;
49103;SDS011;34915;52.926;11.116;2023-06-22T10:54:25;3.77;;;3.47;;
49103;SDS011;34915;52.926;11.116;2023-06-22T10:56:50;5.07;;;3.67;;
49103;SDS011;34915;52.926;11.116;2023-06-22T10:59:16;3.87;;;3.57;;
49103;SDS011;34915;52.926;11.116;2023-06-22T11:01:42;5.20;;;3.80;;
49103;SDS011;34915;52.926;11.116;2023-06-22T11:04:07;4.00;;;3.70;;
49103;SDS011;34915;52.926;11.116;2023-06-22T11:06:33;4.10;;;3.70;;
49103;SDS011;34915;52.926;11.116;2023-06-22T11:08:58;4.87;;;3.47;;
49103;SDS011;34915;52.926;11.116;2023-06-22T11:11:25;4.03;;;3.73;;
49103;SDS011;34915;52.926;11.116;2023-06-22T11:13:51;4.23;;;3.83;;
49103;SDS011;34915;52.926;11.116;2023-06-22T11:16:17;5.63;;;4.10;;
49103;SDS011;34915;52.926;11.116;2023-06-22T11:18:45;4.23;;;3.57;;
49103;SDS011;34915;52.926;11.116;2023-06-22T11:21:11;3.87;;;3.57;;
49103;SDS011;34915;52.926;11.116;2023-06-22T11:23:36;4.27;;;3.77;;
49103;SDS011;34915;52.926;11.116;2023-06-22T11:26:02;4.57;;;3.60;;
49103;SDS011;34915;52.926;11.116;2023-06-22T11:28:27;3.60;;;3.30;;
49103;SDS011;34915;52.926;11.116;2023-06-22T11:30:53;4.00;;;3.27;;
49103;SDS011;34915;52.926;11.116;2023-06-22T11:33:18;4.30;;;3.67;;
49103;SDS011;34915;52.926;11.116;2023-06-22T11:35:44;3.70;;;3.40;;
49103;SDS011;34915;52.926;11.116;2023-06-22T11:38:09;5.77;;;3.80;;
49103;SDS011;34915;52.926;11.116;2023-06-22T11:40:35;3.80;;;3.50;;
49103;SDS011;34915;52.926;11.116;2023-06-22T11:43:01;3.80;;;3.50;;
49103;SDS011;34915;52.926;11.116;2023-06-22T11:45:26;3.33;;;3.03;;
49103;SDS011;34915;52.926;11.116;2023-06-22T11:47:52;5.30;;;3.23;;
49103;SDS011;34915;52.926;11.116;2023-06-22T11:50:18;3.30;;;3.00;;
49103;SDS011;34915;52.926;11.116;2023-06-22T11:52:43;3.90;;;3.60;;
49103;SDS011;34915;52.926;11.116;2023-06-22T11:55:09;3.67;;;3.37;;
49103;SDS011;34915;52.926;11.116;2023-06-22T11:57:38;4.73;;;3.43;;
49103;SDS011;34915;52.926;11.116;2023-06-22T12:00:16;4.97;;;3.23;;
49103;SDS011;34915;52.926;11.116;2023-06-22T12:02:43;3.60;;;3.30;;
49103;SDS011;34915;52.926;11.116;2023-06-22T12:05:10;3.37;;;3.07;;
49103;SDS011;34915;52.926;11.116;2023-06-22T12:07:36;3.30;;;3.00;;
49103;SDS011;34915;52.926;11.116;2023-06-22T12:10:02;4.10;;;3.67;;
49103;SDS011;34915;52.926;11.116;2023-06-22T12:12:28;6.33;;;3.83;;
49103;SDS011;34915;52.926;11.116;2023-06-22T12:14:54;4.17;;;3.77;;
49103;SDS011;34915;52.926;11.116;2023-06-22T12:17:19;4.70;;;3.70;;
49103;SDS011;34915;52.926;11.116;2023-06-22T12:19:45;3.70;;;3.33;;
49103;SDS011;34915;52.926;11.116;2023-06-22T12:22:10;4.97;;;3.20;;
49103;SDS011;34915;52.926;11.116;2023-06-22T12:24:36;4.00;;;3.37;;
49103;SDS011;34915;52.926;11.116;2023-06-22T12:27:01;3.80;;;3.50;;
49103;SDS011;34915;52.926;11.116;2023-06-22T12:29:28;3.93;;;3.63;;
49103;SDS011;34915;52.926;11.116;2023-06-22T12:31:54;4.80;;;4.20;;
49103;SDS011;34915;52.926;11.116;2023-06-22T12:34:20;4.10;;;3.70;;
49103;SDS011;34915;52.926;11.116;2023-06-22T12:36:45;3.53;;;3.23;;
49103;SDS011;34915;52.926;11.116;2023-06-22T12:39:13;4.17;;;3.77;;
49103;SDS011;34915;52.926;11.116;2023-06-22T12:41:38;5.30;;;3.30;;
49103;SDS011;34915;52.926;11.116;2023-06-22T12:44:04;4.10;;;3.20;;
49103;SDS011;34915;52.926;11.116;2023-06-22T12:46:29;5.87;;;3.83;;
49103;SDS011;34915;52.926;11.116;2023-06-22T12:49:02;3.73;;;3.43;;
49103;SDS011;34915;52.926;11.116;2023-06-22T12:51:27;4.27;;;3.87;;
49103;SDS011;34915;52.926;11.116;2023-06-22T12:53:53;4.10;;;3.80;;
49103;SDS011;34915;52.926;11.116;2023-06-22T12:56:18;5.07;;;3.77;;
49103;SDS011;34915;52.926;11.116;2023-06-22T12:58:46;3.80;;;3.40;;
49103;SDS011;34915;52.926;11.116;2023-06-22T13:01:11;4.20;;;3.80;;
49103;SDS011;34915;52.926;11.116;2023-06-22T13:03:38;4.00;;;3.60;;
49103;SDS011;34915;52.926;11.116;2023-06-22T13:06:03;4.10;;;3.70;;
49103;SDS011;34915;52.926;11.116;2023-06-22T13:08:29;6.17;;;4.00;;
49103;SDS011;34915;52.926;11.116;2023-06-22T13:10:55;4.07;;;3.77;;
49103;SDS011;34915;52.926;11.116;2023-06-22T13:13:23;3.57;;;3.27;;
49103;SDS011;34915;52.926;11.116;2023-06-22T13:15:55;5.00;;;3.93;;
49103;SDS011;34915;52.926;11.116;2023-06-22T13:18:20;4.77;;;3.67;;
49103;SDS011;34915;52.926;11.116;2023-06-22T13:20:46;5.30;;;4.10;;
49103;SDS011;34915;52.926;11.116;2023-06-22T13:23:11;4.47;;;4.10;;
49103;SDS011;34915;52.926;11.116;2023-06-22T13:25:37;5.90;;;4.50;;
49103;SDS011;34915;52.926;11.116;2023-06-22T13:28:03;7.70;;;4.47;;
49103;SDS011;34915;52.926;11.116;2023-06-22T13:30:28;4.17;;;3.77;;
49103;SDS011;34915;52.926;11.116;2023-06-22T13:32:55;4.53;;;4.13;;
49103;SDS011;34915;52.926;11.116;2023-06-22T13:35:20;3.73;;;3.43;;
49103;SDS011;34915;52.926;11.116;2023-06-22T13:37:46;5.40;;;4.13;;
49103;SDS011;34915;52.926;11.116;2023-06-22T13:40:11;4.13;;;3.73;;
49103;SDS011;34915;52.926;11.116;2023-06-22T13:42:37;5.00;;;4.07;;
49103;SDS011;34915;52.926;11.116;2023-06-22T13:45:03;4.13;;;3.77;;
49103;SDS011;34915;52.926;11.116;2023-06-22T13:47:29;4.37;;;3.90;;
49103;SDS011;34915;52.926;11.116;2023-06-22T13:49:56;4.50;;;4.10;;
49103;SDS011;34915;52.926;11.116;2023-06-22T13:52:22;4.23;;;3.37;;
49103;SDS011;34915;52.926;11.116;2023-06-22T13:54:49;4.80;;;4.13;;
49103;SDS011;34915;52.926;11.116;2023-06-22T13:57:15;3.97;;;3.67;;
49103;SDS011;34915;52.926;11.116;2023-06-22T13:59:40;5.37;;;4.10;;
49103;SDS011;34915;52.926;11.116;2023-06-22T14:02:06;5.53;;;4.30;;
49103;SDS011;34915;52.926;11.116;2023-06-22T14:04:34;4.60;;;4.20;;
49103;SDS011;34915;52.926;11.116;2023-06-22T14:06:59;4.53;;;4.13;;
49103;SDS011;34915;52.926;11.116;2023-06-22T14:09:25;4.33;;;3.93;;
49103;SDS011;34915;52.926;11.116;2023-06-22T14:11:50;4.63;;;4.10;;
49103;SDS011;34915;52.926;11.116;2023-06-22T14:14:16;4.40;;;4.00;;
49103;SDS011;34915;52.926;11.116;2023-06-22T14:16:44;4.63;;;4.10;;
49103;SDS011;34915;52.926;11.116;2023-06-22T14:19:09;4.33;;;3.90;;
49103;SDS011;34915;52.926;11.116;2023-06-22T14:21:35;4.37;;;3.57;;
49103;SDS011;34915;52.926;11.116;2023-06-22T14:24:01;4.50;;;4.10;;
49103;SDS011;34915;52.926;11.116;2023-06-22T14:26:26;8.00;;;4.53;;
49103;SDS011;34915;52.926;11.116;2023-06-22T14:28:52;5.37;;;4.50;;
49103;SDS011;34915;52.926;11.116;2023-06-22T14:31:18;4.77;;;4.33;;
49103;SDS011;34915;52.926;11.116;2023-06-22T14:33:48;4.67;;;4.23;;